Time;durP1;ratioP1;P1;durP2;ratioP2;P2;SDS_P1;SDS_P2;PMS_P1;PMS_P2;Temp;Humidity;BMP_temperature;BMP_pressure;BME280_temperature;BME280_humidity;BME280_pressure;Samples;Min_cycle;Max_cycle;Signal;HPM_P1;HPM_P2
2023/11/09 00:00:57;;;;;;;24.13;3.90;;;;;;;;;;5012338;28;20496;-83
2023/11/09 00:03:22;;;;;;;27.98;3.42;;;;;;;;;;5012252;28;20294;-83
2023/11/09 00:05:49;;;;;;;25.35;3.55;;;;;;;;;;5012346;28;20379;-83
2023/11/09 00:08:15;;;;;;;23.88;3.63;;;;;;;;;;5012651;28;20429;-83
2023/11/09 00:10:40;;;;;;;12.55;2.72;;;;;;;;;;5011404;28;20041;-83
2023/11/09 00:13:05;;;;;;;19.27;3.00;;;;;;;;;;5010985;28;20033;-83
2023/11/09 00:15:31;;;;;;;22.53;2.83;;;;;;;;;;5012282;28;20072;-83
2023/11/09 00:17:56;;;;;;;20.17;2.88;;;;;;;;;;5011067;28;20266;-83
2023/11/09 00:20:21;;;;;;;15.83;3.17;;;;;;;;;;5011065;28;20349;-83
2023/11/09 00:22:47;;;;;;;20.95;3.33;;;;;;;;;;5009776;28;20656;-83
2023/11/09 00:25:13;;;;;;;21.35;3.15;;;;;;;;;;5010635;28;20018;-83
2023/11/09 00:27:38;;;;;;;21.88;3.45;;;;;;;;;;5012363;28;20025;-83
2023/11/09 00:30:06;;;;;;;16.95;3.00;;;;;;;;;;5012032;28;20045;-83
2023/11/09 00:32:31;;;;;;;18.50;3.15;;;;;;;;;;5011782;28;20034;-83
2023/11/09 00:34:56;;;;;;;14.25;2.55;;;;;;;;;;5012081;28;20022;-83
2023/11/09 00:37:23;;;;;;;26.77;3.60;;;;;;;;;;5011427;28;20022;-83
2023/11/09 00:39:48;;;;;;;22.33;3.50;;;;;;;;;;5011896;28;20741;-83
2023/11/09 00:42:15;;;;;;;22.83;2.93;;;;;;;;;;5011647;28;20080;-83
2023/11/09 00:44:41;;;;;;;22.58;2.88;;;;;;;;;;5010685;28;20757;-83
2023/11/09 00:47:06;;;;;;;18.38;2.97;;;;;;;;;;5011960;28;20064;-84
2023/11/09 00:49:31;;;;;;;20.13;5.57;;;;;;;;;;5011776;28;20022;-83
2023/11/09 00:51:57;;;;;;;12.75;3.13;;;;;;;;;;5011452;28;20275;-83
2023/11/09 00:54:22;;;;;;;15.13;2.85;;;;;;;;;;5014637;28;20096;-84
2023/11/09 00:56:48;;;;;;;15.93;3.47;;;;;;;;;;5014418;28;20037;-83
2023/11/09 00:59:13;;;;;;;12.00;2.38;;;;;;;;;;5015934;28;20164;-83
2023/11/09 01:01:38;;;;;;;15.17;2.20;;;;;;;;;;5015910;28;20531;-83
2023/11/09 01:04:05;;;;;;;23.57;2.73;;;;;;;;;;5015709;28;20792;-83
2023/11/09 01:06:31;;;;;;;15.45;2.72;;;;;;;;;;5014290;28;20287;-83
2023/11/09 01:08:57;;;;;;;11.45;2.00;;;;;;;;;;5015810;28;20104;-83
2023/11/09 01:11:23;;;;;;;14.68;2.25;;;;;;;;;;5015020;28;20168;-83
2023/11/09 01:13:48;;;;;;;21.67;3.50;;;;;;;;;;5015601;28;20590;-83
2023/11/09 01:16:13;;;;;;;31.38;2.95;;;;;;;;;;5014246;28;20029;-83
2023/11/09 01:18:39;;;;;;;18.02;2.38;;;;;;;;;;5015616;28;20252;-83
2023/11/09 01:21:05;;;;;;;15.07;2.40;;;;;;;;;;5014236;28;20024;-84
2023/11/09 01:23:30;;;;;;;15.35;3.22;;;;;;;;;;5014793;28;20298;-84
2023/11/09 01:25:56;;;;;;;17.23;2.43;;;;;;;;;;5014181;28;20476;-83
2023/11/09 01:28:21;;;;;;;24.02;4.25;;;;;;;;;;5010356;28;20276;-83
2023/11/09 01:30:47;;;;;;;18.52;2.67;;;;;;;;;;4995704;28;20049;-84
2023/11/09 01:33:12;;;;;;;17.27;3.33;;;;;;;;;;4994447;28;20033;-84
2023/11/09 01:35:37;;;;;;;22.23;2.75;;;;;;;;;;4995759;28;20015;-84
2023/11/09 01:38:02;;;;;;;18.43;2.60;;;;;;;;;;5010479;28;20032;-84
2023/11/09 01:40:28;;;;;;;10.93;2.10;;;;;;;;;;5012964;28;20272;-83
2023/11/09 01:42:55;;;;;;;27.63;3.47;;;;;;;;;;5014646;28;20026;-84
2023/11/09 01:45:21;;;;;;;17.42;2.55;;;;;;;;;;5015005;28;20014;-84
2023/11/09 01:47:46;;;;;;;25.42;3.03;;;;;;;;;;5014706;28;20105;-83
2023/11/09 01:50:12;;;;;;;15.32;2.30;;;;;;;;;;5014787;28;20041;-84
2023/11/09 01:52:38;;;;;;;17.52;3.20;;;;;;;;;;5014935;28;20101;-84
2023/11/09 01:55:04;;;;;;;14.40;2.28;;;;;;;;;;5014839;28;20053;-84
2023/11/09 01:57:30;;;;;;;20.52;2.55;;;;;;;;;;5013506;28;20025;-84
2023/11/09 01:59:55;;;;;;;23.13;3.20;;;;;;;;;;5014425;28;20022;-84
2023/11/09 02:02:21;;;;;;;28.25;4.97;;;;;;;;;;5014285;28;20022;-84
2023/11/09 02:04:46;;;;;;;17.67;2.92;;;;;;;;;;5011756;28;20421;-84
2023/11/09 02:07:12;;;;;;;13.40;2.20;;;;;;;;;;5013268;28;20019;-84
2023/11/09 02:09:37;;;;;;;16.67;2.38;;;;;;;;;;5014644;28;20340;-84
2023/11/09 02:12:03;;;;;;;17.05;2.50;;;;;;;;;;5012683;28;20383;-84
2023/11/09 02:14:28;;;;;;;21.08;2.97;;;;;;;;;;5014347;28;20026;-84
2023/11/09 02:16:54;;;;;;;18.50;3.38;;;;;;;;;;5013828;28;20531;-84
2023/11/09 02:19:20;;;;;;;17.88;3.83;;;;;;;;;;5014354;28;20068;-84
2023/11/09 02:21:45;;;;;;;15.48;2.17;;;;;;;;;;5013155;28;20026;-84
2023/11/09 02:24:11;;;;;;;21.65;2.75;;;;;;;;;;5013086;28;20026;-84
2023/11/09 02:26:37;;;;;;;20.48;2.95;;;;;;;;;;5013303;28;20018;-84
2023/11/09 02:29:02;;;;;;;14.48;3.30;;;;;;;;;;5014313;28;20491;-84
2023/11/09 02:31:29;;;;;;;18.00;3.22;;;;;;;;;;5014172;28;20058;-84
2023/11/09 02:33:55;;;;;;;15.10;2.60;;;;;;;;;;5014033;28;20550;-84
2023/11/09 02:36:20;;;;;;;17.23;2.90;;;;;;;;;;5013724;28;20037;-84
2023/11/09 02:38:45;;;;;;;19.27;3.00;;;;;;;;;;5014085;28;20030;-84
2023/11/09 02:41:11;;;;;;;25.20;3.13;;;;;;;;;;5012745;28;20271;-85
2023/11/09 02:43:40;;;;;;;13.02;2.22;;;;;;;;;;5013796;28;20314;-84
2023/11/09 02:46:05;;;;;;;19.05;5.13;;;;;;;;;;5013902;28;20018;-84
2023/11/09 02:48:30;;;;;;;16.73;3.15;;;;;;;;;;5013886;28;20392;-84
2023/11/09 02:50:56;;;;;;;20.20;3.37;;;;;;;;;;5013795;28;20102;-84
2023/11/09 02:53:21;;;;;;;12.60;3.10;;;;;;;;;;5013627;28;20259;-84
2023/11/09 02:55:46;;;;;;;16.70;2.90;;;;;;;;;;5012405;28;20267;-84
2023/11/09 02:58:11;;;;;;;18.13;2.73;;;;;;;;;;5013406;28;20610;-85
2023/11/09 03:00:37;;;;;;;14.02;2.05;;;;;;;;;;5011189;28;20267;-84
2023/11/09 03:03:02;;;;;;;17.92;2.22;;;;;;;;;;5032255;28;20025;-84
2023/11/09 03:05:27;;;;;;;16.48;2.80;;;;;;;;;;5013389;28;20022;-84
2023/11/09 03:07:54;;;;;;;15.10;2.97;;;;;;;;;;5013481;28;20104;-85
2023/11/09 03:10:20;;;;;;;19.70;3.30;;;;;;;;;;5012893;28;20014;-84
2023/11/09 03:12:47;;;;;;;11.68;2.22;;;;;;;;;;5013045;28;20100;-84
2023/11/09 03:15:12;;;;;;;15.70;2.58;;;;;;;;;;5013211;28;20061;-84
2023/11/09 03:17:39;;;;;;;8.27;2.25;;;;;;;;;;5013460;28;20022;-84
2023/11/09 03:20:05;;;;;;;22.80;3.15;;;;;;;;;;5011944;28;20065;-84
2023/11/09 03:22:33;;;;;;;17.77;2.42;;;;;;;;;;5013098;28;20419;-84
2023/11/09 03:24:58;;;;;;;14.20;2.03;;;;;;;;;;5012314;28;20022;-84
2023/11/09 03:27:23;;;;;;;13.13;3.03;;;;;;;;;;5013134;28;20317;-84
2023/11/09 03:29:48;;;;;;;20.53;3.07;;;;;;;;;;5012071;28;20575;-84
2023/11/09 03:32:14;;;;;;;21.63;3.57;;;;;;;;;;5012666;28;20271;-85
2023/11/09 03:34:39;;;;;;;18.70;2.37;;;;;;;;;;5012983;28;20267;-85
2023/11/09 03:37:04;;;;;;;19.77;2.10;;;;;;;;;;5013099;28;20266;-84
2023/11/09 03:39:32;;;;;;;13.07;2.45;;;;;;;;;;5011167;28;20071;-84
2023/11/09 03:41:58;;;;;;;11.90;2.42;;;;;;;;;;5009408;28;20038;-84
2023/11/09 03:44:23;;;;;;;24.40;2.78;;;;;;;;;;5011041;28;20021;-84
2023/11/09 03:46:51;;;;;;;13.10;2.17;;;;;;;;;;5012672;28;20022;-84
2023/11/09 03:49:17;;;;;;;11.25;1.60;;;;;;;;;;5012003;28;20689;-84
2023/11/09 03:51:42;;;;;;;19.10;2.73;;;;;;;;;;5010784;28;20565;-84
2023/11/09 03:54:07;;;;;;;22.50;3.80;;;;;;;;;;5011849;28;20318;-84
2023/11/09 03:56:32;;;;;;;11.70;2.25;;;;;;;;;;5011351;28;20029;-84
2023/11/09 03:58:58;;;;;;;17.23;2.47;;;;;;;;;;5012463;28;20024;-84
2023/11/09 04:01:23;;;;;;;14.47;2.17;;;;;;;;;;5012417;28;20022;-84
2023/11/09 04:03:49;;;;;;;10.35;1.60;;;;;;;;;;5011003;28;20282;-84
2023/11/09 04:06:17;;;;;;;16.88;1.98;;;;;;;;;;5012450;28;20014;-84
2023/11/09 04:08:43;;;;;;;15.80;1.95;;;;;;;;;;5011228;28;20025;-84
2023/11/09 04:11:09;;;;;;;12.55;2.63;;;;;;;;;;5012429;28;20518;-84
2023/11/09 04:13:34;;;;;;;11.40;2.23;;;;;;;;;;5012192;28;20061;-84
2023/11/09 04:16:00;;;;;;;19.48;2.10;;;;;;;;;;5012322;28;20259;-84
2023/11/09 04:18:25;;;;;;;17.77;3.08;;;;;;;;;;5011959;28;20024;-84
2023/11/09 04:20:50;;;;;;;8.82;1.75;;;;;;;;;;5011068;28;20017;-84
2023/11/09 04:23:15;;;;;;;15.55;2.15;;;;;;;;;;5010297;28;20034;-84
2023/11/09 04:25:40;;;;;;;15.23;2.53;;;;;;;;;;5012416;28;20380;-84
2023/11/09 04:28:06;;;;;;;14.25;2.70;;;;;;;;;;5011248;28;20741;-84
2023/11/09 04:30:33;;;;;;;15.35;4.35;;;;;;;;;;5011673;28;20050;-84
2023/11/09 04:32:58;;;;;;;18.17;2.30;;;;;;;;;;5011723;28;20065;-84
2023/11/09 04:35:27;;;;;;;18.33;2.20;;;;;;;;;;5012104;28;20014;-84
2023/11/09 04:37:54;;;;;;;11.85;1.70;;;;;;;;;;5010424;28;20275;-84
2023/11/09 04:40:22;;;;;;;13.13;1.95;;;;;;;;;;5011877;28;20053;-84
2023/11/09 04:42:47;;;;;;;6.05;1.45;;;;;;;;;;5010597;28;20044;-84
2023/11/09 04:45:13;;;;;;;6.15;1.48;;;;;;;;;;5010969;28;20017;-84
2023/11/09 04:47:41;;;;;;;19.02;2.92;;;;;;;;;;5011818;28;20026;-84
2023/11/09 04:50:14;;;;;;;8.98;1.70;;;;;;;;;;5012061;28;20026;-84
2023/11/09 04:52:44;;;;;;;12.30;1.75;;;;;;;;;;5010337;28;20064;-84
2023/11/09 04:55:10;;;;;;;10.65;2.22;;;;;;;;;;5010006;28;20022;-84
2023/11/09 05:08:36;;;;;;;10.02;1.63;;;;;;;;;;5010984;28;20061;-84
2023/11/09 05:11:01;;;;;;;10.85;1.85;;;;;;;;;;5011895;28;20034;-84
2023/11/09 05:13:26;;;;;;;13.63;2.20;;;;;;;;;;5011639;28;20040;-84
2023/11/09 05:15:52;;;;;;;11.90;3.38;;;;;;;;;;5011569;28;20018;-84
2023/11/09 05:18:18;;;;;;;15.03;1.80;;;;;;;;;;5011088;28;20053;-84
2023/11/09 05:20:43;;;;;;;11.43;1.63;;;;;;;;;;5011723;28;20294;-84
2023/11/09 05:23:08;;;;;;;10.03;2.33;;;;;;;;;;5010686;28;20061;-84
2023/11/09 05:25:34;;;;;;;11.97;2.13;;;;;;;;;;5011744;28;20283;-84
2023/11/09 05:27:59;;;;;;;12.20;2.03;;;;;;;;;;5011181;28;20728;-84
2023/11/09 05:30:24;;;;;;;7.97;1.80;;;;;;;;;;5011611;28;20018;-84
2023/11/09 05:32:49;;;;;;;9.70;1.87;;;;;;;;;;5011406;28;20507;-84
2023/11/09 05:35:15;;;;;;;18.25;3.30;;;;;;;;;;5011674;28;20342;-84
2023/11/09 05:37:41;;;;;;;10.45;1.73;;;;;;;;;;5009163;28;20480;-84
2023/11/09 05:40:07;;;;;;;14.05;3.55;;;;;;;;;;5012748;28;20018;-84
2023/11/09 05:42:33;;;;;;;10.95;1.42;;;;;;;;;;5013728;28;20057;-84
2023/11/09 05:45:01;;;;;;;13.85;1.35;;;;;;;;;;5015018;28;20026;-84
2023/11/09 05:47:27;;;;;;;17.23;2.50;;;;;;;;;;5014482;28;20048;-84
2023/11/09 05:49:52;;;;;;;10.45;2.25;;;;;;;;;;5015075;28;20464;-84
2023/11/09 05:52:17;;;;;;;7.00;1.48;;;;;;;;;;5014195;28;20517;-84
2023/11/09 05:54:42;;;;;;;12.20;1.55;;;;;;;;;;5014705;28;20030;-84
2023/11/09 05:57:08;;;;;;;10.20;1.40;;;;;;;;;;5014508;28;20101;-84
2023/11/09 05:59:33;;;;;;;11.73;1.40;;;;;;;;;;5013281;28;20317;-84
2023/11/09 06:01:58;;;;;;;12.15;1.05;;;;;;;;;;5014722;28;20297;-84
2023/11/09 06:04:23;;;;;;;3.97;0.97;;;;;;;;;;5012092;28;20461;-84
2023/11/09 06:06:48;;;;;;;9.73;1.07;;;;;;;;;;5014149;28;20278;-84
2023/11/09 06:09:15;;;;;;;8.67;0.93;;;;;;;;;;5010641;28;20303;-84
2023/11/09 06:11:40;;;;;;;3.78;0.77;;;;;;;;;;5011366;28;20350;-84
2023/11/09 06:14:07;;;;;;;10.83;1.47;;;;;;;;;;5011255;28;20168;-84
2023/11/09 06:16:32;;;;;;;7.30;0.77;;;;;;;;;;5013794;28;20263;-85
2023/11/09 06:18:58;;;;;;;5.10;0.88;;;;;;;;;;5013957;28;20022;-84
2023/11/09 06:21:23;;;;;;;10.60;1.13;;;;;;;;;;5013062;28;20053;-84
2023/11/09 06:23:50;;;;;;;9.80;2.03;;;;;;;;;;5012947;28;20030;-84
2023/11/09 06:26:15;;;;;;;6.35;1.05;;;;;;;;;;5014450;28;20022;-84
2023/11/09 06:28:41;;;;;;;6.73;1.10;;;;;;;;;;5013613;28;20499;-84
2023/11/09 06:31:06;;;;;;;5.80;0.80;;;;;;;;;;5013015;28;20259;-84
2023/11/09 06:33:33;;;;;;;7.57;1.25;;;;;;;;;;5013491;28;20022;-84
2023/11/09 06:35:58;;;;;;;9.32;1.10;;;;;;;;;;5013339;28;20484;-85
2023/11/09 06:38:24;;;;;;;9.75;1.10;;;;;;;;;;5011993;28;20014;-85
2023/11/09 06:40:49;;;;;;;6.47;1.02;;;;;;;;;;5013922;28;20057;-85
2023/11/09 06:43:15;;;;;;;8.98;1.17;;;;;;;;;;5012864;28;20365;-85
2023/11/09 06:45:40;;;;;;;6.55;0.80;;;;;;;;;;5013849;28;20396;-84
2023/11/09 06:48:05;;;;;;;6.03;1.02;;;;;;;;;;5013567;28;20033;-85
2023/11/09 06:50:31;;;;;;;7.05;0.75;;;;;;;;;;5012751;28;20083;-84
2023/11/09 06:52:56;;;;;;;11.02;1.05;;;;;;;;;;5013295;28;20058;-85
2023/11/09 06:55:22;;;;;;;8.50;0.80;;;;;;;;;;5012220;28;20494;-85
2023/11/09 06:57:47;;;;;;;10.68;1.40;;;;;;;;;;5012813;28;20030;-85
2023/11/09 07:00:13;;;;;;;5.03;0.93;;;;;;;;;;5013269;28;20076;-85
2023/11/09 07:02:39;;;;;;;4.55;1.20;;;;;;;;;;5013346;28;20117;-85
2023/11/09 07:05:08;;;;;;;4.57;0.70;;;;;;;;;;5013620;28;20393;-85
2023/11/09 07:07:34;;;;;;;4.57;0.95;;;;;;;;;;5013645;28;20049;-85
2023/11/09 07:09:59;;;;;;;10.23;1.30;;;;;;;;;;5013375;28;20460;-85
2023/11/09 07:12:26;;;;;;;5.13;0.90;;;;;;;;;;5012064;28;20116;-85
2023/11/09 07:14:51;;;;;;;4.55;0.77;;;;;;;;;;5013484;28;20408;-85
2023/11/09 07:17:17;;;;;;;6.43;0.88;;;;;;;;;;5013246;28;20025;-85
2023/11/09 07:19:47;;;;;;;7.45;1.70;;;;;;;;;;5013259;28;20384;-85
2023/11/09 07:22:13;;;;;;;7.00;1.35;;;;;;;;;;5013389;28;20017;-85
2023/11/09 07:24:39;;;;;;;9.70;1.15;;;;;;;;;;5012783;28;20079;-85
2023/11/09 07:27:09;;;;;;;16.20;2.25;;;;;;;;;;5013094;28;20017;-86
2023/11/09 07:29:35;;;;;;;8.52;0.93;;;;;;;;;;5013019;28;20365;-85
2023/11/09 07:32:00;;;;;;;9.35;1.45;;;;;;;;;;5013058;28;20088;-85
2023/11/09 07:34:27;;;;;;;9.48;2.10;;;;;;;;;;5012961;28;20063;-86
2023/11/09 07:36:52;;;;;;;9.55;0.98;;;;;;;;;;5013044;28;20376;-86
2023/11/09 07:39:18;;;;;;;12.30;1.60;;;;;;;;;;5011792;28;20030;-86
2023/11/09 07:41:43;;;;;;;12.20;1.20;;;;;;;;;;5012105;28;20025;-85
2023/11/09 07:44:09;;;;;;;4.90;0.90;;;;;;;;;;5012596;28;20502;-86
2023/11/09 07:46:34;;;;;;;8.38;1.17;;;;;;;;;;5012457;28;20049;-86
2023/11/09 07:49:02;;;;;;;7.60;1.08;;;;;;;;;;5012448;28;20030;-85
2023/11/09 07:51:27;;;;;;;10.82;1.67;;;;;;;;;;5012808;28;20022;-85
2023/11/09 07:53:52;;;;;;;9.93;1.57;;;;;;;;;;5012669;28;20029;-86
2023/11/09 07:56:17;;;;;;;13.32;1.33;;;;;;;;;;5010280;28;20291;-86
2023/11/09 07:58:43;;;;;;;5.07;0.93;;;;;;;;;;5009417;28;20018;-85
2023/11/09 08:01:10;;;;;;;4.95;0.55;;;;;;;;;;5019062;28;20021;-86
2023/11/09 08:03:36;;;;;;;7.32;0.95;;;;;;;;;;5012279;28;20444;-85
2023/11/09 08:06:02;;;;;;;3.13;0.85;;;;;;;;;;5010672;28;20494;-84
2023/11/09 08:08:27;;;;;;;3.58;0.65;;;;;;;;;;5012181;28;20034;-84
2023/11/09 08:10:53;;;;;;;8.03;0.87;;;;;;;;;;5011103;28;20384;-84
2023/11/09 08:13:18;;;;;;;3.05;0.98;;;;;;;;;;5011789;28;20734;-84
2023/11/09 08:15:44;;;;;;;7.75;1.85;;;;;;;;;;5012048;28;20021;-85
2023/11/09 08:18:09;;;;;;;6.77;0.97;;;;;;;;;;5012189;28;20029;-84
2023/11/09 08:20:34;;;;;;;3.20;0.82;;;;;;;;;;5012125;28;20290;-84
2023/11/09 08:22:59;;;;;;;5.97;0.65;;;;;;;;;;5011882;28;20034;-84
2023/11/09 08:25:27;;;;;;;5.18;0.80;;;;;;;;;;5011372;28;20083;-84
2023/11/09 08:27:52;;;;;;;5.15;0.50;;;;;;;;;;5009938;28;20033;-85
2023/11/09 08:30:19;;;;;;;3.00;0.85;;;;;;;;;;5009774;28;20025;-87
2023/11/09 08:32:47;;;;;;;9.38;1.50;;;;;;;;;;5011434;28;20022;-87
2023/11/09 08:35:13;;;;;;;6.47;0.88;;;;;;;;;;5011577;28;20508;-86
2023/11/09 08:37:41;;;;;;;4.95;0.68;;;;;;;;;;5010609;28;20026;-86
2023/11/09 08:40:16;;;;;;;5.10;0.43;;;;;;;;;;5009635;28;20468;-87
2023/11/09 08:42:45;;;;;;;6.65;0.73;;;;;;;;;;5009946;28;20065;-85
2023/11/09 08:45:11;;;;;;;2.40;0.47;;;;;;;;;;5010642;28;20014;-86
2023/11/09 08:47:37;;;;;;;4.72;0.80;;;;;;;;;;5010234;28;20026;-86
2023/11/09 08:50:02;;;;;;;5.22;0.70;;;;;;;;;;5010382;28;20044;-87
2023/11/09 08:52:28;;;;;;;6.53;0.82;;;;;;;;;;5011320;28;20469;-87
2023/11/09 08:54:56;;;;;;;5.17;1.50;;;;;;;;;;5008217;28;20109;-86
2023/11/09 08:57:21;;;;;;;4.18;0.88;;;;;;;;;;5007934;28;20281;-87
2023/11/09 08:59:47;;;;;;;8.13;1.35;;;;;;;;;;5009002;28;20459;-86
2023/11/09 09:02:12;;;;;;;6.32;0.77;;;;;;;;;;5011331;28;20021;-86
2023/11/09 09:04:37;;;;;;;4.97;0.83;;;;;;;;;;5010986;28;20068;-86
2023/11/09 09:07:03;;;;;;;3.97;1.02;;;;;;;;;;5011766;28;20244;-86
2023/11/09 09:09:28;;;;;;;4.60;0.88;;;;;;;;;;5011328;28;20064;-85
2023/11/09 09:11:54;;;;;;;6.85;0.60;;;;;;;;;;5009477;28;20483;-85
2023/11/09 09:14:19;;;;;;;5.23;1.10;;;;;;;;;;5012117;28;20371;-86
2023/11/09 09:16:44;;;;;;;5.63;1.13;;;;;;;;;;5011874;28;20749;-86
2023/11/09 09:19:10;;;;;;;9.02;0.98;;;;;;;;;;5015235;28;20029;-85
2023/11/09 09:21:36;;;;;;;7.15;0.70;;;;;;;;;;5015195;28;20034;-86
2023/11/09 09:24:02;;;;;;;7.68;1.02;;;;;;;;;;5014650;28;20117;-86
2023/11/09 09:26:29;;;;;;;6.78;0.73;;;;;;;;;;5015400;28;20503;-88
2023/11/09 09:28:56;;;;;;;6.40;0.80;;;;;;;;;;5014488;28;20391;-88
2023/11/09 09:31:23;;;;;;;10.35;1.00;;;;;;;;;;5014669;28;20025;-86
2023/11/09 09:33:56;;;;;;;4.45;0.68;;;;;;;;;;5027090;28;20391;-86
2023/11/09 09:36:21;;;;;;;6.95;2.17;;;;;;;;;;5014891;28;20018;-86
2023/11/09 09:38:47;;;;;;;8.02;1.20;;;;;;;;;;5013216;28;20029;-86
2023/11/09 09:41:15;;;;;;;6.20;1.02;;;;;;;;;;5007507;28;20033;-87
2023/11/09 09:43:42;;;;;;;6.00;0.95;;;;;;;;;;5006766;28;20080;-87
2023/11/09 09:46:08;;;;;;;8.73;1.40;;;;;;;;;;5006566;28;20026;-88
2023/11/09 09:48:34;;;;;;;5.55;0.80;;;;;;;;;;5009722;28;20018;-87
2023/11/09 09:51:02;;;;;;;8.85;0.70;;;;;;;;;;5014015;28;20022;-88
2023/11/09 09:53:29;;;;;;;4.43;1.13;;;;;;;;;;5013507;28;20472;-88
2023/11/09 09:55:56;;;;;;;11.68;1.75;;;;;;;;;;5014643;28;20030;-88
2023/11/09 09:58:21;;;;;;;3.80;0.65;;;;;;;;;;5013992;28;20376;-87
2023/11/09 10:00:48;;;;;;;2.88;0.70;;;;;;;;;;5014509;28;20097;-87
2023/11/09 10:03:13;;;;;;;7.32;0.95;;;;;;;;;;5013194;28;20034;-87
2023/11/09 10:05:39;;;;;;;8.32;1.55;;;;;;;;;;5013272;28;20032;-87
2023/11/09 10:08:04;;;;;;;7.22;1.15;;;;;;;;;;5014325;28;20491;-88
2023/11/09 10:10:37;;;;;;;8.15;0.73;;;;;;;;;;5014616;28;20026;-88
2023/11/09 10:13:06;;;;;;;6.60;1.10;;;;;;;;;;5013901;28;20009;-93
2023/11/09 10:15:31;;;;;;;8.82;1.58;;;;;;;;;;5014636;28;20097;-95
2023/11/09 10:17:57;;;;;;;6.05;0.70;;;;;;;;;;5013114;28;20161;-93
2023/11/09 10:20:22;;;;;;;4.25;0.77;;;;;;;;;;5013342;28;20029;-94
2023/11/09 10:22:50;;;;;;;6.40;1.02;;;;;;;;;;5015711;28;20036;-96
2023/11/09 10:25:18;;;;;;;3.75;1.60;;;;;;;;;;5013401;28;20423;-93
2023/11/09 10:27:47;;;;;;;8.20;1.13;;;;;;;;;;5012608;28;20075;-90
2023/11/09 10:30:15;;;;;;;6.68;1.23;;;;;;;;;;5014089;28;20099;-91
2023/11/09 10:32:40;;;;;;;3.38;0.63;;;;;;;;;;5012392;28;20010;-86
2023/11/09 10:35:07;;;;;;;9.45;1.00;;;;;;;;;;5013985;28;20088;-86
2023/11/09 10:37:34;;;;;;;4.70;0.70;;;;;;;;;;5013884;28;20017;-86
2023/11/09 10:40:04;;;;;;;12.00;0.85;;;;;;;;;;5013908;28;20026;-88
2023/11/09 10:42:30;;;;;;;8.07;1.10;;;;;;;;;;5013296;28;20018;-88
2023/11/09 10:44:57;;;;;;;3.80;0.80;;;;;;;;;;5013715;28;20092;-89
2023/11/09 10:47:25;;;;;;;5.85;1.02;;;;;;;;;;5011506;28;20032;-88
2023/11/09 10:49:53;;;;;;;4.47;1.20;;;;;;;;;;5013362;28;20029;-87
2023/11/09 10:52:19;;;;;;;7.20;0.65;;;;;;;;;;5013774;28;20009;-87
2023/11/09 10:54:46;;;;;;;4.75;0.90;;;;;;;;;;5013568;28;20480;-89
2023/11/09 10:57:13;;;;;;;4.53;0.70;;;;;;;;;;5011891;28;20101;-87
2023/11/09 10:59:40;;;;;;;4.22;0.93;;;;;;;;;;5013467;28;20379;-88
2023/11/09 11:02:11;;;;;;;4.50;0.90;;;;;;;;;;5003910;28;20014;-87
2023/11/09 11:04:36;;;;;;;3.35;0.60;;;;;;;;;;4993793;28;20015;-87
2023/11/09 11:07:06;;;;;;;6.38;0.80;;;;;;;;;;5005918;28;20061;-88
2023/11/09 11:09:37;;;;;;;5.88;1.33;;;;;;;;;;4997962;28;20022;-88
2023/11/09 11:12:06;;;;;;;6.07;0.85;;;;;;;;;;4993703;28;20026;-87
2023/11/09 11:14:34;;;;;;;5.53;1.17;;;;;;;;;;4992491;28;20072;-87
2023/11/09 11:17:07;;;;;;;4.43;0.80;;;;;;;;;;5005675;28;20045;-89
2023/11/09 11:19:36;;;;;;;6.18;1.10;;;;;;;;;;5011782;28;20018;-88
2023/11/09 11:22:22;;;;;;;5.25;1.10;;;;;;;;;;5010926;28;20018;-89
2023/11/09 11:25:14;;;;;;;3.97;0.85;;;;;;;;;;5012931;28;20048;-88
2023/11/09 11:27:39;;;;;;;;;;;;;;;;;;5013092;28;20464;-88
2023/11/09 11:30:17;;;;;;;9.05;1.27;;;;;;;;;;5010102;28;20413;-87
2023/11/09 11:32:43;;;;;;;8.13;1.00;;;;;;;;;;5012926;28;20537;-87
2023/11/09 11:35:11;;;;;;;10.82;1.25;;;;;;;;;;5012517;28;20029;-87
2023/11/09 11:37:36;;;;;;;8.75;0.88;;;;;;;;;;5012105;28;20018;-87
2023/11/09 11:40:05;;;;;;;7.30;1.30;;;;;;;;;;5012609;28;20396;-88
2023/11/09 11:42:33;;;;;;;6.70;0.98;;;;;;;;;;5011991;28;20022;-89
2023/11/09 11:45:01;;;;;;;9.27;1.50;;;;;;;;;;5005984;28;20093;-88
2023/11/09 11:47:27;;;;;;;4.35;1.10;;;;;;;;;;4998632;28;20032;-87
2023/11/09 11:49:56;;;;;;;7.32;1.13;;;;;;;;;;5011965;28;20026;-87
2023/11/09 11:52:23;;;;;;;4.10;1.10;;;;;;;;;;5011617;28;20030;-87
2023/11/09 11:54:49;;;;;;;5.13;0.77;;;;;;;;;;5010064;28;20022;-88
2023/11/09 11:57:15;;;;;;;4.95;0.82;;;;;;;;;;5011074;28;20373;-87
2023/11/09 11:59:41;;;;;;;5.95;0.73;;;;;;;;;;5011733;28;20094;-89
2023/11/09 12:02:12;;;;;;;3.78;0.60;;;;;;;;;;5012000;28;20021;-87
2023/11/09 12:04:38;;;;;;;11.80;1.07;;;;;;;;;;5012342;28;20369;-87
2023/11/09 12:07:06;;;;;;;4.68;0.55;;;;;;;;;;5009824;28;20072;-87
2023/11/09 12:09:31;;;;;;;5.22;0.75;;;;;;;;;;5012330;28;20105;-87
2023/11/09 12:11:58;;;;;;;4.40;0.73;;;;;;;;;;5011647;28;20113;-88
2023/11/09 12:14:25;;;;;;;5.35;0.98;;;;;;;;;;5012125;28;20022;-88
2023/11/09 12:16:50;;;;;;;7.18;0.90;;;;;;;;;;5011090;28;20113;-87
2023/11/09 12:19:16;;;;;;;4.07;0.95;;;;;;;;;;5010510;28;20113;-88
2023/11/09 12:21:41;;;;;;;4.63;0.67;;;;;;;;;;5009595;28;20021;-87
2023/11/09 12:24:12;;;;;;;4.13;0.57;;;;;;;;;;5011995;28;20309;-86
2023/11/09 12:26:37;;;;;;;6.80;0.93;;;;;;;;;;5011539;28;20472;-87
2023/11/09 12:29:03;;;;;;;8.18;0.80;;;;;;;;;;5011464;28;20041;-87
2023/11/09 12:31:29;;;;;;;4.38;1.00;;;;;;;;;;5011582;28;20022;-88
2023/11/09 12:34:11;;;;;;;7.78;0.95;;;;;;;;;;5011973;28;20054;-88
2023/11/09 12:36:41;;;;;;;3.10;0.80;;;;;;;;;;5011464;28;20255;-87
2023/11/09 12:39:28;;;;;;;2.17;0.80;;;;;;;;;;5011680;28;20499;-88
2023/11/09 12:41:52;;;;;;;7.68;1.00;;;;;;;;;;5010949;28;20084;-87
2023/11/09 12:44:26;;;;;;;7.03;1.50;;;;;;;;;;5011731;28;20041;-88
2023/11/09 12:47:20;;;;;;;8.60;1.20;;;;;;;;;;5011372;28;20065;-87
2023/11/09 12:49:47;;;;;;;12.77;1.10;;;;;;;;;;5013416;28;20318;-88
2023/11/09 12:52:16;;;;;;;7.22;1.00;;;;;;;;;;5018404;28;20415;-87
2023/11/09 12:54:43;;;;;;;14.13;1.55;;;;;;;;;;5018320;28;20064;-87
2023/11/09 12:57:11;;;;;;;5.38;0.93;;;;;;;;;;5016022;28;20022;-88
2023/11/09 12:59:41;;;;;;;7.35;1.10;;;;;;;;;;5015940;28;20037;-87
2023/11/09 13:02:14;;;;;;;11.43;2.75;;;;;;;;;;5017692;28;20030;-86
2023/11/09 13:04:43;;;;;;;11.95;2.20;;;;;;;;;;5016788;28;20339;-88
2023/11/09 13:07:17;;;;;;;7.22;1.50;;;;;;;;;;5018223;28;20025;-88
2023/11/09 13:09:45;;;;;;;10.30;1.55;;;;;;;;;;5017696;28;20026;-87
2023/11/09 13:12:27;;;;;;;6.47;1.63;;;;;;;;;;5017691;28;20018;-87
2023/11/09 13:15:11;;;;;;;12.35;2.00;;;;;;;;;;5016434;28;20032;-87
2023/11/09 13:17:52;;;;;;;11.77;2.13;;;;;;;;;;5017255;28;20438;-87
2023/11/09 13:20:37;;;;;;;9.05;1.40;;;;;;;;;;5019005;28;20053;-86
2023/11/09 13:23:06;;;;;;;8.43;1.30;;;;;;;;;;4996831;28;20056;-86
2023/11/09 13:25:42;;;;;;;6.47;1.00;;;;;;;;;;4998429;28;20046;-87
2023/11/09 13:28:10;;;;;;;6.68;0.93;;;;;;;;;;4997613;28;20022;-87
2023/11/09 13:30:50;;;;;;;8.38;1.02;;;;;;;;;;5014427;28;20417;-87
2023/11/09 13:33:34;;;;;;;11.77;2.15;;;;;;;;;;5018550;28;20022;-88
2023/11/09 13:36:04;;;;;;;6.10;1.20;;;;;;;;;;5016471;28;20482;-87
2023/11/09 13:38:51;;;;;;;4.63;0.95;;;;;;;;;;4998302;28;20037;-87
2023/11/09 13:41:17;;;;;;;8.88;1.52;;;;;;;;;;5010645;28;20021;-86
2023/11/09 13:43:59;;;;;;;3.88;0.85;;;;;;;;;;5017671;28;20064;-87
2023/11/09 13:46:24;;;;;;;;;;;;;;;;;;5016585;28;20026;-87
2023/11/09 13:48:50;;;;;;;8.15;0.88;;;;;;;;;;5017607;28;20000;-87
2023/11/09 13:51:20;;;;;;;7.32;1.08;;;;;;;;;;5017979;28;20037;-87
2023/11/09 13:53:50;;;;;;;5.47;1.15;;;;;;;;;;5017731;28;20030;-87
2023/11/09 13:58:52;;;;;;;5.25;0.90;;;;;;;;;;5017213;28;20061;-86
2023/11/09 14:01:27;;;;;;;5.30;0.88;;;;;;;;;;5013212;28;20039;-88
2023/11/09 14:03:52;;;;;;;5.53;1.13;;;;;;;;;;5014648;28;20044;-87
2023/11/09 14:06:21;;;;;;;6.30;1.17;;;;;;;;;;5014072;28;20464;-87
2023/11/09 14:08:46;;;;;;;8.35;2.15;;;;;;;;;;5014124;28;20315;-87
2023/11/09 14:11:11;;;;;;;5.57;0.73;;;;;;;;;;5013962;28;20022;-87
2023/11/09 14:13:45;;;;;;;5.67;1.00;;;;;;;;;;5011922;28;20330;-87
2023/11/09 14:16:22;;;;;;;10.43;1.42;;;;;;;;;;5013788;28;20286;-87
2023/11/09 14:18:57;;;;;;;7.68;1.30;;;;;;;;;;5014424;28;20093;-87
2023/11/09 14:21:32;;;;;;;13.30;2.08;;;;;;;;;;5013859;28;20033;-87
2023/11/09 14:23:58;;;;;;;6.78;1.25;;;;;;;;;;5013387;28;20033;-87
2023/11/09 14:26:27;;;;;;;13.82;1.85;;;;;;;;;;5012615;28;20022;-87
2023/11/09 14:29:05;;;;;;;7.70;1.77;;;;;;;;;;5013355;28;20456;-89
2023/11/09 14:31:36;;;;;;;8.93;1.80;;;;;;;;;;4994454;28;20426;-87
2023/11/09 14:34:02;;;;;;;9.85;1.67;;;;;;;;;;4994418;28;20025;-86
2023/11/09 14:36:27;;;;;;;8.45;1.58;;;;;;;;;;4994583;28;20030;-87
2023/11/09 14:38:52;;;;;;;13.97;1.70;;;;;;;;;;4994434;28;20022;-87
2023/11/09 14:41:17;;;;;;;8.15;1.50;;;;;;;;;;5007094;28;20279;-86
2023/11/09 14:43:43;;;;;;;8.27;1.52;;;;;;;;;;5012513;28;20026;-87
2023/11/09 14:46:13;;;;;;;14.13;2.42;;;;;;;;;;5013724;28;20113;-87
2023/11/09 14:48:39;;;;;;;14.02;1.25;;;;;;;;;;5013737;28;20104;-86
2023/11/09 14:51:04;;;;;;;8.85;1.27;;;;;;;;;;5013763;28;20105;-86